createdAt,value
2018-04-26T00:00:43.972Z,17.10
2018-04-26T00:03:11.539Z,13.23
2018-04-26T00:05:39.076Z,17.23
2018-04-26T00:08:06.604Z,14.93
2018-04-26T00:10:34.174Z,14.63
2018-04-26T00:13:01.706Z,16.43
2018-04-26T00:15:29.237Z,14.83
2018-04-26T00:17:56.766Z,15.47
2018-04-26T00:20:24.306Z,14.63
2018-04-26T00:22:51.875Z,14.63
2018-04-26T00:25:19.418Z,16.60
2018-04-26T00:27:46.956Z,16.83
2018-04-26T00:30:14.538Z,16.87
2018-04-26T00:32:42.076Z,16.57
2018-04-26T00:35:09.610Z,15.20
2018-04-26T00:37:37.150Z,16.53
2018-04-26T00:40:04.714Z,18.90
2018-04-26T00:42:32.256Z,16.20
2018-04-26T00:44:59.791Z,14.63
2018-04-26T00:47:27.323Z,17.40
2018-04-26T00:49:54.852Z,17.77
2018-04-26T00:52:22.385Z,15.53
2018-04-26T00:54:49.915Z,15.17
2018-04-26T00:57:17.440Z,14.93
2018-04-26T00:59:44.983Z,16.17
2018-04-26T01:02:12.585Z,16.00
2018-04-26T01:04:40.119Z,16.00
2018-04-26T01:07:07.649Z,16.07
2018-04-26T01:09:35.250Z,16.10
2018-04-26T01:12:02.748Z,18.20
2018-04-26T01:14:30.318Z,15.97
2018-04-26T01:16:57.848Z,15.23
2018-04-26T01:19:25.376Z,15.77
2018-04-26T01:21:52.910Z,16.23
2018-04-26T01:24:20.439Z,14.63
2018-04-26T01:26:48.014Z,15.83
2018-04-26T01:29:15.558Z,15.23
2018-04-26T01:31:43.094Z,16.00
2018-04-26T01:34:10.640Z,15.33
2018-04-26T01:36:49.938Z,14.57
2018-04-26T01:39:17.494Z,14.27
2018-04-26T01:41:45.027Z,14.90
2018-04-26T01:44:12.600Z,16.27
2018-04-26T01:46:40.133Z,15.53
2018-04-26T01:49:07.667Z,17.70
2018-04-26T01:51:35.203Z,15.47
2018-04-26T01:54:02.789Z,16.20
2018-04-26T01:56:30.343Z,15.87
2018-04-26T01:58:57.937Z,20.77
2018-04-26T02:01:25.528Z,18.00
2018-04-26T02:03:53.081Z,14.47
2018-04-26T02:06:20.636Z,18.67
2018-04-26T02:08:48.180Z,17.07
2018-04-26T02:11:15.710Z,16.80
2018-04-26T02:13:43.267Z,15.93
2018-04-26T02:16:10.844Z,18.43
2018-04-26T02:18:38.381Z,15.43
2018-04-26T02:21:05.916Z,15.67
2018-04-26T02:23:33.500Z,15.90
2018-04-26T02:26:01.044Z,15.03
2018-04-26T02:28:28.615Z,14.50
2018-04-26T02:30:56.187Z,17.23
2018-04-26T02:33:23.773Z,14.97
2018-04-26T02:35:51.328Z,14.67
2018-04-26T02:38:18.900Z,16.70
2018-04-26T02:40:46.442Z,15.60
2018-04-26T02:43:14.043Z,14.60
2018-04-26T02:45:41.576Z,13.77
2018-04-26T02:48:09.147Z,14.50
2018-04-26T02:50:36.716Z,13.93
2018-04-26T02:53:04.271Z,15.27
2018-04-26T02:55:31.840Z,13.40
2018-04-26T02:57:59.372Z,14.90
2018-04-26T03:00:26.959Z,14.80
2018-04-26T03:02:54.488Z,13.00
2018-04-26T03:05:22.043Z,14.17
2018-04-26T03:07:49.580Z,17.50
2018-04-26T03:10:17.200Z,14.13
2018-04-26T03:12:44.699Z,13.90
2018-04-26T03:15:12.240Z,13.93
2018-04-26T03:17:39.782Z,14.07
2018-04-26T03:20:07.312Z,15.20
2018-04-26T03:22:34.838Z,15.90
2018-04-26T03:25:02.384Z,15.57
2018-04-26T03:27:29.931Z,14.93
2018-04-26T03:29:57.488Z,13.80
2018-04-26T03:32:25.035Z,15.73
2018-04-26T03:34:52.579Z,13.77
2018-04-26T03:37:20.188Z,15.73
2018-04-26T03:39:47.679Z,19.80
2018-04-26T03:42:15.219Z,14.77
2018-04-26T03:44:42.799Z,19.97
2018-04-26T03:47:10.340Z,14.93
2018-04-26T03:49:37.872Z,16.93
2018-04-26T03:52:05.409Z,18.67
2018-04-26T03:54:32.965Z,20.57
2018-04-26T03:57:00.551Z,21.43
2018-04-26T03:59:28.090Z,25.93
2018-04-26T04:02:07.372Z,22.93
2018-04-26T04:04:46.739Z,26.87
2018-04-26T04:07:14.279Z,25.30
2018-04-26T04:09:41.815Z,27.20
2018-04-26T04:12:09.356Z,30.73
2018-04-26T04:14:36.888Z,27.53
2018-04-26T04:17:04.419Z,24.97
2018-04-26T04:19:31.959Z,25.17
2018-04-26T04:21:59.543Z,23.53
2018-04-26T04:24:27.083Z,22.73
2018-04-26T04:26:54.642Z,24.33
2018-04-26T04:29:22.171Z,20.33
2018-04-26T04:31:49.703Z,22.67
2018-04-26T04:34:17.241Z,23.17
2018-04-26T04:36:44.794Z,25.27
2018-04-26T04:39:12.375Z,19.43
2018-04-26T04:41:39.913Z,23.27
2018-04-26T04:44:07.500Z,26.40
2018-04-26T04:46:35.034Z,21.23
2018-04-26T04:49:02.616Z,22.13
2018-04-26T04:51:30.169Z,20.17
2018-04-26T04:53:57.698Z,22.87
2018-04-26T04:56:25.226Z,23.23
2018-04-26T04:58:52.766Z,22.13
2018-04-26T05:01:20.352Z,26.80
2018-04-26T05:03:47.886Z,19.20
2018-04-26T05:06:15.419Z,17.07
2018-04-26T05:08:42.968Z,22.23
2018-04-26T05:11:10.547Z,18.60
2018-04-26T05:13:38.075Z,23.73
2018-04-26T05:16:05.629Z,20.73
2018-04-26T05:18:33.183Z,27.63
2018-04-26T05:21:00.724Z,31.63
2018-04-26T05:23:28.260Z,23.03
2018-04-26T05:25:55.812Z,26.27
2018-04-26T05:28:23.392Z,25.10
2018-04-26T05:30:50.965Z,19.97
2018-04-26T05:33:18.499Z,22.27
2018-04-26T05:35:46.036Z,19.20
2018-04-26T05:38:13.567Z,22.47
2018-04-26T05:40:41.109Z,21.93
2018-04-26T05:43:08.655Z,19.47
2018-04-26T05:45:36.202Z,20.97
2018-04-26T05:48:03.799Z,20.00
2018-04-26T05:50:31.352Z,28.27
2018-04-26T05:52:58.887Z,26.93
2018-04-26T05:55:26.429Z,20.63
2018-04-26T05:57:53.959Z,21.07
2018-04-26T06:00:21.487Z,23.63
2018-04-26T06:02:49.893Z,22.20
2018-04-26T06:05:17.443Z,22.77
2018-04-26T06:07:44.996Z,25.23
2018-04-26T06:10:12.533Z,24.40
2018-04-26T06:12:40.059Z,27.23
2018-04-26T06:15:07.593Z,27.87
2018-04-26T06:17:35.136Z,24.23
2018-04-26T06:20:02.670Z,25.83
2018-04-26T06:22:30.228Z,26.07
2018-04-26T06:24:57.816Z,25.13
2018-04-26T06:27:25.325Z,25.10
2018-04-26T06:29:52.863Z,24.50
2018-04-26T06:32:20.437Z,26.10
2018-04-26T06:34:47.969Z,28.03
2018-04-26T06:37:15.500Z,26.53
2018-04-26T06:39:43.032Z,27.55
2018-04-26T06:42:10.560Z,28.53
2018-04-26T06:44:38.105Z,28.58
2018-04-26T06:47:05.684Z,24.50
2018-04-26T06:49:33.243Z,24.65
2018-04-26T06:52:00.781Z,24.60
2018-04-26T06:54:28.319Z,23.90
2018-04-26T06:56:55.863Z,23.52
2018-04-26T06:59:23.450Z,23.02
2018-04-26T07:01:51.041Z,23.60
2018-04-26T07:04:18.580Z,23.52
2018-04-26T07:06:46.117Z,24.45
2018-04-26T07:09:13.687Z,26.67
2018-04-26T07:11:41.236Z,25.75
2018-04-26T07:14:08.831Z,25.60
2018-04-26T07:16:36.370Z,24.42
2018-04-26T07:19:03.947Z,28.02
2018-04-26T07:21:31.541Z,27.80
2018-04-26T07:23:59.082Z,26.90
2018-04-26T07:26:26.625Z,30.85
2018-04-26T07:28:54.263Z,26.40
2018-04-26T07:31:21.775Z,26.37
2018-04-26T07:33:49.363Z,27.05
2018-04-26T07:36:16.907Z,27.13
2018-04-26T07:38:44.445Z,31.62
2018-04-26T07:41:12.009Z,31.70
2018-04-26T07:43:39.594Z,26.92
2018-04-26T07:46:07.184Z,29.55
2018-04-26T07:48:34.716Z,25.45
2018-04-26T07:51:02.315Z,27.45
2018-04-26T07:56:51.359Z,23.42
2018-04-26T07:59:19.679Z,25.17
2018-04-26T08:01:47.307Z,30.23
2018-04-26T08:04:14.794Z,29.63
2018-04-26T08:06:42.489Z,24.02
2018-04-26T08:09:10.805Z,25.80
2018-04-26T08:11:38.371Z,22.30
2018-04-26T08:14:05.928Z,21.08
2018-04-26T08:16:33.472Z,22.13
2018-04-26T08:19:01.021Z,20.33
2018-04-26T08:21:29.421Z,21.55
2018-04-26T08:23:56.959Z,21.70
2018-04-26T08:26:24.509Z,20.85
2018-04-26T08:28:52.048Z,22.17
2018-04-26T08:31:19.582Z,19.27
2018-04-26T08:33:47.124Z,19.08
2018-04-26T08:36:14.659Z,20.37
2018-04-26T08:38:42.216Z,23.10
2018-04-26T08:41:09.756Z,22.23
2018-04-26T08:43:37.316Z,20.02
2018-04-26T08:46:04.857Z,19.55
2018-04-26T08:48:32.396Z,20.55
2018-04-26T08:50:59.945Z,18.20
2018-04-26T08:53:27.490Z,18.95
2018-04-26T08:55:55.037Z,19.08
2018-04-26T08:58:22.645Z,18.50
2018-04-26T09:00:50.224Z,17.25
2018-04-26T09:03:17.756Z,17.48
2018-04-26T09:05:45.330Z,17.25
2018-04-26T09:08:12.922Z,16.37
2018-04-26T09:10:40.477Z,18.85
2018-04-26T09:13:08.045Z,14.73
2018-04-26T09:15:35.638Z,16.73
2018-04-26T09:18:03.151Z,16.05
2018-04-26T09:20:30.699Z,12.95
2018-04-26T09:22:58.277Z,17.60
2018-04-26T09:25:25.821Z,15.73
2018-04-26T09:27:53.392Z,12.70
2018-04-26T09:30:20.992Z,11.70
2018-04-26T09:32:48.538Z,17.73
2018-04-26T09:35:16.124Z,11.80
2018-04-26T09:37:43.709Z,11.38
2018-04-26T09:40:11.257Z,14.52
2018-04-26T09:42:38.788Z,12.37
2018-04-26T09:45:06.331Z,11.73
2018-04-26T09:47:33.863Z,10.65
2018-04-26T09:50:01.397Z,12.25
2018-04-26T09:52:28.961Z,11.95
2018-04-26T09:54:56.498Z,11.60
2018-04-26T09:57:24.047Z,13.32
2018-04-26T09:59:51.599Z,11.07
2018-04-26T10:02:25.418Z,11.12
2018-04-26T10:04:56.435Z,9.55
2018-04-26T10:07:23.971Z,10.60
2018-04-26T10:09:51.532Z,9.45
2018-04-26T10:12:19.078Z,11.52
2018-04-26T10:14:46.665Z,13.95
2018-04-26T10:17:14.208Z,13.73
2018-04-26T10:19:41.733Z,9.77
2018-04-26T10:22:09.271Z,11.07
2018-04-26T10:24:36.798Z,8.38
2018-04-26T10:27:04.396Z,8.40
2018-04-26T10:29:31.938Z,12.10
2018-04-26T10:31:59.466Z,8.88
2018-04-26T10:34:27.003Z,8.88
2018-04-26T10:36:54.660Z,9.40
2018-04-26T10:39:22.215Z,11.88
2018-04-26T10:41:49.801Z,10.13
2018-04-26T10:44:17.405Z,11.20
2018-04-26T10:46:44.884Z,9.85
2018-04-26T10:49:12.424Z,11.12
2018-04-26T10:51:40.005Z,14.52
2018-04-26T10:54:07.530Z,10.10
2018-04-26T10:56:35.070Z,11.52
2018-04-26T10:59:02.657Z,10.63
2018-04-26T11:01:30.188Z,9.95
2018-04-26T11:03:57.730Z,9.63
2018-04-26T11:06:25.290Z,10.40
2018-04-26T11:08:52.837Z,9.23
2018-04-26T11:11:20.457Z,12.63
2018-04-26T11:13:47.935Z,10.00
2018-04-26T11:16:15.488Z,9.60
2018-04-26T11:18:43.014Z,10.98
2018-04-26T11:21:10.558Z,9.40
2018-04-26T11:23:38.096Z,11.82
2018-04-26T11:26:05.629Z,14.10
2018-04-26T11:28:33.161Z,10.00
2018-04-26T11:31:01.030Z,11.10
2018-04-26T11:33:28.545Z,8.98
2018-04-26T11:35:56.116Z,8.98
2018-04-26T11:38:23.684Z,9.48
2018-04-26T11:40:51.216Z,11.75
2018-04-26T11:43:18.791Z,11.60
2018-04-26T11:45:46.314Z,8.77
2018-04-26T11:48:13.903Z,9.07
2018-04-26T11:50:41.445Z,8.32
2018-04-26T11:53:09.010Z,9.27
2018-04-26T11:55:36.547Z,10.48
2018-04-26T11:58:04.118Z,9.85
2018-04-26T12:00:31.723Z,15.80
2018-04-26T12:02:59.278Z,14.07
2018-04-26T12:05:26.804Z,13.52
2018-04-26T12:07:54.375Z,10.55
2018-04-26T12:10:21.909Z,15.23
2018-04-26T12:12:49.483Z,14.77
2018-04-26T12:15:17.017Z,11.57
2018-04-26T12:17:44.597Z,9.63
2018-04-26T12:20:12.140Z,9.38
2018-04-26T12:22:39.734Z,9.45
2018-04-26T12:25:07.267Z,9.30
2018-04-26T12:27:34.840Z,10.17
2018-04-26T12:30:04.091Z,11.37
2018-04-26T12:32:31.627Z,9.70
2018-04-26T12:34:59.212Z,10.77
2018-04-26T12:37:26.743Z,8.00
2018-04-26T12:39:54.344Z,8.07
2018-04-26T12:42:21.978Z,23.83
2018-04-26T12:44:49.484Z,10.70
2018-04-26T12:47:17.015Z,11.07
2018-04-26T12:49:44.602Z,7.70
2018-04-26T12:52:12.136Z,11.63
2018-04-26T12:54:39.688Z,9.10
2018-04-26T12:57:07.223Z,13.27
2018-04-26T12:59:34.750Z,10.30
2018-04-26T13:02:02.314Z,12.70
2018-04-26T13:04:29.895Z,9.77
2018-04-26T13:06:57.418Z,7.70
2018-04-26T13:09:24.952Z,6.63
2018-04-26T13:11:52.536Z,7.30
2018-04-26T13:14:20.063Z,11.73
2018-04-26T13:16:47.665Z,7.30
2018-04-26T13:19:15.208Z,10.67
2018-04-26T13:21:42.748Z,14.57
2018-04-26T13:24:10.284Z,11.63
2018-04-26T13:26:37.816Z,9.90
2018-04-26T13:29:05.359Z,9.30
2018-04-26T13:31:32.905Z,10.40
2018-04-26T13:34:00.431Z,8.30
2018-04-26T13:36:27.961Z,8.90
2018-04-26T13:38:55.493Z,8.40
2018-04-26T13:41:23.020Z,6.77
2018-04-26T13:43:50.546Z,9.77
2018-04-26T13:46:18.189Z,8.90
2018-04-26T13:48:45.723Z,10.17
2018-04-26T13:51:13.252Z,9.07
2018-04-26T13:53:40.787Z,9.70
2018-04-26T13:56:08.347Z,8.43
2018-04-26T13:58:36.811Z,11.03
2018-04-26T14:01:04.340Z,7.30
2018-04-26T14:03:31.903Z,8.77
2018-04-26T14:05:59.428Z,9.73
2018-04-26T14:08:26.960Z,12.57
2018-04-26T14:10:54.560Z,10.50
2018-04-26T14:13:22.096Z,10.07
2018-04-26T14:15:49.659Z,15.07
2018-04-26T14:18:17.191Z,7.17
2018-04-26T14:20:44.719Z,7.00
2018-04-26T14:23:12.271Z,7.47
2018-04-26T14:25:39.809Z,8.70
2018-04-26T14:28:07.398Z,10.57
2018-04-26T14:30:34.943Z,8.47
2018-04-26T14:33:02.475Z,8.43
2018-04-26T14:35:30.063Z,10.40
2018-04-26T14:37:57.606Z,9.53
2018-04-26T14:40:25.139Z,7.73
2018-04-26T14:42:52.677Z,6.87
2018-04-26T14:45:20.218Z,9.13
2018-04-26T14:47:47.771Z,7.97
2018-04-26T14:50:15.301Z,8.03
2018-04-26T14:52:42.841Z,11.03
2018-04-26T14:55:10.372Z,8.80
2018-04-26T14:57:37.915Z,11.37
2018-04-26T15:00:05.491Z,9.37
2018-04-26T15:02:33.014Z,9.10
2018-04-26T15:05:00.544Z,11.67
2018-04-26T15:07:28.072Z,7.73
2018-04-26T15:09:55.616Z,11.43
2018-04-26T15:12:23.155Z,10.83
2018-04-26T15:14:50.706Z,11.07
2018-04-26T15:17:18.245Z,10.33
2018-04-26T15:19:45.775Z,10.83
2018-04-26T15:22:13.320Z,10.43
2018-04-26T15:24:40.859Z,13.70
2018-04-26T15:27:08.404Z,6.53
2018-04-26T15:29:35.944Z,7.50
2018-04-26T15:32:03.476Z,6.73
2018-04-26T15:34:30.998Z,6.00
2018-04-26T15:36:58.642Z,7.33
2018-04-26T15:39:26.190Z,8.70
2018-04-26T15:41:53.779Z,9.90
2018-04-26T15:44:21.356Z,7.50
2018-04-26T15:46:48.868Z,7.33
2018-04-26T15:49:16.459Z,8.13
2018-04-26T15:51:43.991Z,11.10
2018-04-26T15:54:23.363Z,13.07
2018-04-26T15:57:02.745Z,8.70
2018-04-26T15:59:41.938Z,9.27
2018-04-26T16:02:34.928Z,7.83
2018-04-26T16:05:19.887Z,11.07
2018-04-26T16:11:20.232Z,7.00
2018-04-26T16:14:05.788Z,10.23
2018-04-26T16:16:54.524Z,10.77
2018-04-26T16:19:39.511Z,9.93
2018-04-26T16:22:25.685Z,11.67
2018-04-26T16:25:05.076Z,13.83
2018-04-26T16:27:44.372Z,9.37
2018-04-26T16:30:23.696Z,13.23
2018-04-26T16:33:05.987Z,13.83
2018-04-26T16:35:45.300Z,12.03
2018-04-26T16:38:24.601Z,13.07
2018-04-26T16:40:52.188Z,12.43
2018-04-26T16:43:19.740Z,7.10
2018-04-26T16:45:47.265Z,8.40
2018-04-26T16:48:14.800Z,10.10
2018-04-26T16:50:42.362Z,9.80
2018-04-26T16:53:09.899Z,7.73
2018-04-26T16:55:37.434Z,8.53
2018-04-26T16:58:04.978Z,9.50
2018-04-26T17:00:32.568Z,12.47
2018-04-26T17:03:00.146Z,9.60
2018-04-26T17:05:27.675Z,8.73
2018-04-26T17:07:55.208Z,8.30
2018-04-26T17:10:22.840Z,6.87
2018-04-26T17:12:51.468Z,6.53
2018-04-26T17:15:19.163Z,9.77
2018-04-26T17:17:46.649Z,10.37
2018-04-26T17:20:14.189Z,9.90
2018-04-26T17:22:41.727Z,8.07
2018-04-26T17:25:09.319Z,11.50
2018-04-26T17:27:36.861Z,9.17
2018-04-26T17:30:06.296Z,12.53
2018-04-26T17:32:33.851Z,14.40
2018-04-26T17:35:01.389Z,11.63
2018-04-26T17:37:28.919Z,8.27
2018-04-26T17:39:56.495Z,7.23
2018-04-26T17:42:24.130Z,5.97
2018-04-26T17:44:51.690Z,10.30
2018-04-26T17:47:19.300Z,11.37
2018-04-26T17:49:46.839Z,9.80
2018-04-26T17:52:14.432Z,9.53
2018-04-26T17:54:42.020Z,8.33
2018-04-26T17:57:09.546Z,7.43
2018-04-26T17:59:37.090Z,8.00
2018-04-26T18:02:04.625Z,8.37
2018-04-26T18:04:32.212Z,7.67
2018-04-26T18:06:59.785Z,8.33
2018-04-26T18:09:27.450Z,12.00
2018-04-26T18:11:54.999Z,18.37
2018-04-26T18:14:22.557Z,13.10
2018-04-26T18:16:50.447Z,13.17
2018-04-26T18:19:21.060Z,16.93
2018-04-26T18:21:48.738Z,18.33
2018-04-26T18:24:16.287Z,18.30
2018-04-26T18:26:44.717Z,13.20
2018-04-26T18:29:12.274Z,13.13
2018-04-26T18:31:39.874Z,12.00
2018-04-26T18:34:07.470Z,10.40
2018-04-26T18:36:35.141Z,10.47
2018-04-26T18:39:02.712Z,12.83
2018-04-26T18:41:30.397Z,11.97
2018-04-26T18:43:58.003Z,11.17
2018-04-26T18:46:25.543Z,9.30
2018-04-26T18:48:53.078Z,8.07
2018-04-26T18:51:20.705Z,10.60
2018-04-26T18:53:48.206Z,9.87
2018-04-26T18:56:15.735Z,8.63
2018-04-26T18:58:43.279Z,9.37
2018-04-26T19:01:10.808Z,9.43
2018-04-26T19:03:38.344Z,10.80
2018-04-26T19:06:05.877Z,15.40
2018-04-26T19:08:33.425Z,7.70
2018-04-26T19:11:00.953Z,9.43
2018-04-26T19:13:28.496Z,9.87
2018-04-26T19:15:56.064Z,8.57
2018-04-26T19:18:23.648Z,9.50
2018-04-26T19:20:51.321Z,10.13
2018-04-26T19:23:18.860Z,11.47
2018-04-26T19:25:46.397Z,12.67
2018-04-26T19:28:13.965Z,15.60
2018-04-26T19:30:41.498Z,9.43
2018-04-26T19:33:09.043Z,12.67
2018-04-26T19:35:36.577Z,14.43
2018-04-26T19:38:04.159Z,12.13
2018-04-26T19:40:31.720Z,12.03
2018-04-26T19:42:59.268Z,13.77
2018-04-26T19:45:26.801Z,12.43
2018-04-26T19:47:55.096Z,11.53
2018-04-26T19:50:22.631Z,11.33
2018-04-26T19:52:50.186Z,12.03
2018-04-26T19:55:17.729Z,10.93
2018-04-26T19:57:45.354Z,14.03
2018-04-26T20:00:12.957Z,17.70
2018-04-26T20:02:40.495Z,16.03
2018-04-26T20:05:08.047Z,12.70
2018-04-26T20:07:35.576Z,13.80
2018-04-26T20:10:03.129Z,13.43
2018-04-26T20:12:30.663Z,13.13
2018-04-26T20:14:58.203Z,14.53
2018-04-26T20:17:25.736Z,15.53
2018-04-26T20:19:53.280Z,11.50
2018-04-26T20:22:20.836Z,15.40
2018-04-26T20:24:48.406Z,16.30
2018-04-26T20:27:15.955Z,19.53
2018-04-26T20:29:43.491Z,19.77
2018-04-26T20:32:11.096Z,15.33
2018-04-26T20:34:38.631Z,13.97
2018-04-26T20:37:06.163Z,17.50
2018-04-26T20:39:33.699Z,17.10
2018-04-26T20:42:01.267Z,10.53
2018-04-26T20:44:40.465Z,10.67
2018-04-26T20:47:08.099Z,12.07
2018-04-26T20:49:35.656Z,11.33
2018-04-26T20:52:03.228Z,9.70
2018-04-26T20:54:30.755Z,9.47
2018-04-26T20:56:58.331Z,10.30
2018-04-26T20:59:26.708Z,9.63
2018-04-26T21:01:54.253Z,10.27
2018-04-26T21:04:21.841Z,10.73
2018-04-26T21:06:49.390Z,10.27
2018-04-26T21:09:16.976Z,11.83
2018-04-26T21:11:44.559Z,12.87
2018-04-26T21:14:12.137Z,13.23
2018-04-26T21:16:39.741Z,13.73
2018-04-26T21:19:07.313Z,16.50
2018-04-26T21:21:34.852Z,11.73
2018-04-26T21:24:02.384Z,11.43
2018-04-26T21:26:29.950Z,11.40
2018-04-26T21:28:57.492Z,14.83
2018-04-26T21:31:25.084Z,13.10
2018-04-26T21:33:52.620Z,13.17
2018-04-26T21:36:20.160Z,10.67
2018-04-26T21:38:47.724Z,10.57
2018-04-26T21:41:16.113Z,13.20
2018-04-26T21:43:43.712Z,13.67
2018-04-26T21:46:12.187Z,10.83
2018-04-26T21:48:39.781Z,15.37
2018-04-26T21:51:13.171Z,14.37
2018-04-26T21:53:46.332Z,17.03
2018-04-26T21:56:19.419Z,14.47
2018-04-26T21:58:52.471Z,13.67
2018-04-26T22:01:25.511Z,14.00
2018-04-26T22:03:56.436Z,16.53
2018-04-26T22:06:23.970Z,13.60
2018-04-26T22:08:51.503Z,13.87
2018-04-26T22:11:19.088Z,14.60
2018-04-26T22:13:46.624Z,19.80
2018-04-26T22:16:14.166Z,14.40
2018-04-26T22:18:41.704Z,14.20
2018-04-26T22:21:09.240Z,13.90
2018-04-26T22:23:36.871Z,18.33
2018-04-26T22:26:04.471Z,13.63
2018-04-26T22:28:32.015Z,16.90
2018-04-26T22:30:59.604Z,13.67
2018-04-26T22:33:27.144Z,13.77
2018-04-26T22:35:54.725Z,11.20
2018-04-26T22:38:22.288Z,12.70
2018-04-26T22:40:49.826Z,15.27
2018-04-26T22:43:17.363Z,13.27
2018-04-26T22:45:44.902Z,10.73
2018-04-26T22:48:12.439Z,10.73
2018-04-26T22:50:40.036Z,12.20
2018-04-26T22:53:07.572Z,10.40
2018-04-26T22:55:35.202Z,11.03
2018-04-26T22:58:02.741Z,10.53
2018-04-26T23:00:30.331Z,11.10
2018-04-26T23:02:57.918Z,12.40
2018-04-26T23:05:25.475Z,12.83
2018-04-26T23:07:53.008Z,11.13
2018-04-26T23:10:20.544Z,10.53
2018-04-26T23:12:48.083Z,13.33
2018-04-26T23:15:15.631Z,11.07
2018-04-26T23:17:43.160Z,12.17
2018-04-26T23:20:10.697Z,11.10
2018-04-26T23:22:38.264Z,9.87
2018-04-26T23:25:05.801Z,10.53
2018-04-26T23:27:33.345Z,10.90
2018-04-26T23:30:00.926Z,11.63
2018-04-26T23:32:28.475Z,11.23
2018-04-26T23:34:56.011Z,14.47
2018-04-26T23:37:23.567Z,11.20
2018-04-26T23:39:51.105Z,11.57
2018-04-26T23:42:18.685Z,11.63
2018-04-26T23:44:46.219Z,12.30
2018-04-26T23:47:13.761Z,13.17
2018-04-26T23:49:41.344Z,13.50
2018-04-26T23:52:08.924Z,13.93
2018-04-26T23:54:36.485Z,11.80
2018-04-26T23:57:04.025Z,12.40
2018-04-26T23:59:31.574Z,12.93
